Flight Track Log - Related Links

Times and Time Zones

All times are in EDT time to prevent confusion due to time zone crossing. See the SWA268 flight status page for this flight to view local times or setup timezone preferences in your user account.

Time Position Orientation Groundspeed Altitude Reporting Facility
EDT Latitude Longitude Course Direction KTS MPH feet Rate Location/Type
Sun 12:19:23 PM 33.6500 -117.8833 203° Southwest 141 162 1,100  Level Southern California TRACON
Sun 12:20:23 PM 33.6167 -117.9000 203° Southwest 150 173 2,600 1,091 Climbing Southern California TRACON
Sun 12:21:02 PM 33.5939 -117.8992 178° South 150 173 2,900 2,139 Climbing Los Angeles Center
Sun 12:22:04 PM 33.5275 -117.9106 188° South 225 259 6,200 1,984 Climbing Los Angeles Center
Sun 12:23:06 PM 33.4633 -117.9364 199° South 259 298 7,000 387 Climbing Los Angeles Center
Sun 12:24:08 PM 33.4692 -118.0136 275° West 243 280 7,000 1,742 Level Los Angeles Center
Sun 12:25:10 PM 33.5044 -118.1119 293° West 278 320 10,600 3,194 Climbing Los Angeles Center
Sun 12:26:12 PM 33.5767 -118.1628 330° Northwest 318 366 13,600 3,000 Climbing Los Angeles Center
Sun 12:27:14 PM 33.6639 -118.1208 22° Northeast 349 402 16,800 2,661 Climbing Los Angeles Center
Sun 12:28:16 PM 33.7539 -118.0700 25° Northeast 361 415 19,100 2,419 Climbing Los Angeles Center
Sun 12:29:18 PM 33.8447 -117.9981 33° Northeast 393 452 21,800 2,855 Climbing Los Angeles Center
Sun 12:30:20 PM 33.9531 -117.9008 37° Northeast 406 467 25,000 2,806 Climbing Los Angeles Center
Sun 12:31:22 PM 34.0472 -117.8153 37° Northeast 419 482 27,600 1,935 Climbing Los Angeles Center
Sun 12:32:24 PM 34.1328 -117.7153 44° Northeast 434 499 29,000 677 Climbing Los Angeles Center
Sun 12:33:26 PM 34.2164 -117.6017 48° Northeast 449 517 29,000  Level Los Angeles Center
Sun 12:34:28 PM 34.2992 -117.4889 48° Northeast 451 519 29,000  Level Los Angeles Center
Sun 12:35:30 PM 34.3992 -117.3539 48° Northeast 449 517 29,000  Level Los Angeles Center
Sun 12:36:32 PM 34.4689 -117.2564 49° Northeast 456 525 29,000  Level Los Angeles Center
Sun 12:37:34 PM 34.5669 -117.1219 48° Northeast 449 517 29,000  Level Los Angeles Center
Sun 12:38:36 PM 34.6500 -117.0067 49° Northeast 454 522 29,000  Level Los Angeles Center
Sun 12:39:38 PM 34.7333 -116.8928 48° Northeast 455 524 29,000  Level Los Angeles Center
Sun 12:40:40 PM 34.8150 -116.7789 49° Northeast 452 520 29,000 -194 Level Los Angeles Center
Sun 12:41:42 PM 34.8992 -116.6633 48° Northeast 456 525 28,600 -1,210 Descending Los Angeles Center
Sun 12:42:44 PM 34.9992 -116.5275 48° Northeast 451 519 26,500 -1,728 Descending Los Angeles Center
Sun 12:43:47 PM 35.0836 -116.4242 45° Northeast 440 506 25,000 -720 Descending Los Angeles Center
Sun 12:44:49 PM 35.1589 -116.3308 45° Northeast 400 460 25,000 -484 Level Los Angeles Center
Sun 12:45:51 PM 35.2342 -116.2383 45° Northeast 387 445 24,000 -1,258 Descending Los Angeles Center
Sun 12:46:53 PM 35.3033 -116.1478 47° Northeast 373 429 22,400 -1,935 Descending Los Angeles Center
Sun 12:47:55 PM 35.3900 -116.0389 46° Northeast 371 427 20,000 -1,984 Descending Los Angeles Center
Sun 12:48:57 PM 35.4608 -115.9497 46° Northeast 368 423 18,300 -1,800 Descending Los Angeles Center
Sun 12:49:15 PM 35.4861 -115.9178 46° Northeast 364 419 17,600 -1,742 Descending Los Angeles Center
Sun 12:49:59 PM 35.5283 -115.8622 47° Northeast 362 417 16,500 -1,541 Descending Los Angeles Center
Sun 12:50:29 PM 35.5628 -115.8219 44° Northeast 347 399 15,700 -1,548 Descending Los Angeles Center
Sun 12:51:01 PM 35.5922 -115.7786 50° Northeast 350 403 14,900 -1,672 Descending Los Angeles Center
Sun 12:51:30 PM 35.6306 -115.7344 43° Northeast 331 381 14,000 -1,548 Descending Los Angeles Center
Sun 12:52:03 PM 35.6558 -115.7003 48° Northeast 337 388 13,300 -984 Descending Los Angeles Center
Sun 12:52:31 PM 35.6914 -115.6567 45° Northeast 314 361 13,000 -286 Descending Los Angeles Center
Sun 12:53:06 PM 35.7281 -115.6089 47° Northeast 324 373 13,000  Level Los Angeles Center
Sun 12:53:32 PM 35.7508 -115.5819 44° Northeast 307 353 13,000  Level Los Angeles Center
Sun 12:54:08 PM 35.7997 -115.5717 10° North 288 331 13,000  Level Los Angeles Center
Sun 12:54:33 PM 35.8283 -115.5703 North 280 322 13,000  Level Los Angeles Center
Sun 12:55:10 PM 35.8794 -115.5672 North 286 329 13,000  Level Los Angeles Center
Sun 12:55:34 PM 35.9097 -115.5678 359° North 284 327 13,000  Level Los Angeles Center
Sun 12:56:12 PM 35.9583 -115.5575 10° North 284 327 13,000 -537 Level Los Angeles Center
Sun 12:56:41 PM 35.9850 -115.5169 51° Northeast 301 346 12,400 -1,065 Descending Los Angeles Center
Sun 12:57:14 PM 35.9972 -115.4742 71° East 288 331 11,900 -1,200 Descending Los Angeles Center
Sun 12:57:36 PM 36.0119 -115.4311 67° East 295 339 11,300 -871 Descending Los Angeles Center
Sun 12:58:16 PM 36.0275 -115.3803 69° East 293 337 11,000 -806 Descending Los Angeles Center
Sun 12:58:43 PM 36.0275 -115.3225 90° East 289 333 10,400 -1,161 Descending Los Angeles Center
Sun 12:59:18 PM 36.0214 -115.2653 98° East 281 323 9,800 -1,082 Descending Los Angeles Center
Sun 12:59:44 PM 36.0197 -115.2267 93° East 276 318 9,300 -1,065 Descending Los Angeles Center
Sun 01:00:20 PM 36.0161 -115.1731 95° East 274 315 8,700 -764 Descending Los Angeles Center
Sun 01:00:39 PM 36.0144 -115.1433 94° East 262 302 8,600 -677 Descending Los Angeles Center
Sun 01:01:22 PM 36.0094 -115.0883 96° East 256 295 8,000 -590 Descending Los Angeles Center
Sun 01:01:40 PM 36.0083 -115.0656 93° East 228 262 8,000 -667 Level Los Angeles Center
Sun 01:02:25 PM 36.0058 -115.0181 94° East 219 252 7,300 -841 Descending Los Angeles Center
Sun 01:03:27 PM 36.0031 -114.9497 93° East 209 241 6,500 -623 Descending Los Angeles Center
Sun 01:03:42 PM 36.0011 -114.9244 95° East 194 223 6,500 -97 Level Los Angeles Center
Sun 01:04:29 PM 36.0069 -114.8683 83° East 204 235 6,400 -448 Descending Los Angeles Center
Sun 01:04:49 PM 36.0217 -114.8697 356° North 199 229 6,000 -871 Descending Los Angeles Center
Sun 01:05:31 PM 36.0556 -114.8697 360° North 193 222 5,500 -492 Descending Los Angeles Center
Sun 01:05:50 PM 36.0658 -114.8842 311° West 192 221 5,500 7,258 Level Los Angeles Center
Sun 01:06:33 PM 36.0756 -114.9097 295° West 180 207 13,000 -689 Climbing Los Angeles Center
Sun 01:06:51 PM 36.0739 -114.9506 267° West 183 211 4,800 -8,516 Descending Los Angeles Center
Sun 01:07:35 PM 36.0739 -114.9867 270° West 185 213 4,200 -736 Descending Los Angeles Center
Sun 01:08:37 PM 36.0736 -115.0494 270° West 181 208 3,500 -857 Descending Los Angeles Center
Sun 01:08:59 PM 36.0731 -115.0653 268° West 139 160 3,000 -871 Descending Los Angeles Center
Sun 01:09:39 PM 36.0733 -115.0897 271° West 158 182 2,600 -787 Descending Los Angeles Center
Sun 01:10:00 PM 36.0733 -115.1158 270° West 137 158 2,200 -480 Descending Los Angeles Center
Sun 01:10:54 PM 36.0742 -115.1517 272° West 146 168 2,000 -222 Descending Los Angeles Center
Sun 01:12:00 PM 36.0801 -115.1523 90° East  Level Estimated

Login

Don't have an account? Register now (free) for customized features, flight alerts, and more!